• Join FlightAware (Why Join?)
  • Login
  • US Flag 
05:31AM EST


 

Airport Tracker/Info


-or-


 

Live Flight TrackerFlight Track Log ✈ JBU185 ✈ 31-Jan-2013 ✈ KJFK - KDEN

Flight Track Log - Related Links

Times and Time Zones

All times are in EST time to prevent confusion due to time zone crossing. See the JBU185 flight status page for this flight to view local times or setup timezone preferences in your user account.

Time Position Orientation Groundspeed Altitude Reporting Facility
EST Latitude Longitude Course Direction KTS MPH feet Rate Location/Type
05:21PM 40.6167 -73.8500 304° West 216 249 2,700  Level New York TRACON
05:23PM 40.8127 -74.1086 304° West  Level FlightAware Approximate
05:23PM 40.5833 -73.7500 114° Southeast 296 341 5,600  Level New York TRACON
05:23PM 40.6167 -73.6667 62° Northeast 301 346 8,000 2,400 Climbing New York TRACON
05:24PM 40.8722 -74.2268 306° West  Level FlightAware Approximate
05:25PM 40.9351 -74.3419 306° West  Level FlightAware Approximate
05:25PM 40.6667 -73.5667 57° Northeast 319 367 10,400  Level New York TRACON
05:25PM 40.7500 -73.5500 North 332 382 11,200 1,380 Climbing New York TRACON
05:26PM 40.9934 -74.4467 315° West  Level FlightAware Approximate
05:26PM 40.8500 -73.6000 339° North 352 405 13,100  Level New York TRACON
05:27PM 41.0564 -74.5461 304° West  Level FlightAware Approximate
05:27PM 40.9000 -73.6667 315° West 296 341 16,600  Level New York TRACON
05:28PM 40.9667 -73.7333 323° Northwest 289 333 17,000 180 Climbing New York TRACON
05:29PM 41.0167 -73.8167 309° West 285 328 17,000  Level New York TRACON
05:30PM 41.0333 -73.9167 282° West 256 295 17,000 -60 Level New York TRACON
05:33PM 41.0614 -74.1394 280° West 274 315 16,900 -60 Descending New York Center
05:34PM 41.0733 -74.2336 280° West 263 303 16,900  Level New York Center
05:35PM 41.0872 -74.3250 281° West 258 297 16,900 900 Level New York Center
05:36PM 41.0989 -74.4219 279° West 258 297 18,800 1,680 Climbing New York Center
05:37PM 41.1089 -74.5025 279° West 258 297 20,300 1,020 Climbing New York Center
05:38PM 41.1219 -74.6106 279° West 270 311 20,900 540 Climbing New York Center
05:39PM 41.1497 -74.7222 288° West 296 341 21,500 900 Climbing New York Center
05:40PM 41.1997 -74.8411 299° West 342 394 22,800 1,140 Climbing New York Center
05:41PM 41.2497 -74.9600 299° West 355 409 23,900 1,080 Climbing New York Center
05:42PM 41.3017 -75.0819 300° West 371 427 25,000 1,080 Climbing New York Center
05:43PM 41.3556 -75.2014 301° West 376 433 26,100 900 Climbing New York Center
05:44PM 41.4089 -75.3294 299° West 386 444 26,900 900 Climbing New York Center
05:45PM 41.4642 -75.4606 299° West 399 459 27,900 960 Climbing New York Center
05:46PM 41.5089 -75.5967 294° West 404 465 28,900 960 Climbing New York Center
05:47PM 41.5469 -75.7325 291° West 399 459 29,900 960 Climbing New York Center
05:48PM 41.5850 -75.8656 291° West 394 453 30,900 1,020 Climbing New York Center
05:49PM 41.6264 -76.0131 291° West 394 453 32,000 540 Climbing New York Center
05:50PM 41.6622 -76.1464 290° West 394 453 32,000  Level New York Center
05:51PM 41.7019 -76.2803 292° West 394 453 32,000  Level New York Center
05:52PM 41.7392 -76.4167 290° West 389 448 32,000  Level New York Center
05:53PM 41.7731 -76.5364 291° West 394 453 32,000  Level New York Center
05:54PM 41.8103 -76.6703 290° West 394 453 32,000  Level New York Center
05:55PM 41.8469 -76.8072 290° West 394 453 32,000  Level New York Center
05:56PM 41.8858 -76.9447 291° West 394 453 32,000  Level New York Center
05:56PM 41.9092 -77.0283 291° West 395 455 32,000  Level Cleveland Center
05:57PM 41.9467 -77.1658 290° West 400 460 32,000  Level Cleveland Center
05:58PM 41.9842 -77.3036 290° West 400 460 32,000  Level Cleveland Center
05:59PM 42.0214 -77.4442 290° West 400 460 32,000  Level Cleveland Center
06:00PM 42.0564 -77.5794 289° West 400 460 32,000  Level Cleveland Center
06:01PM 42.0953 -77.7175 291° West 400 460 32,000  Level Cleveland Center
06:02PM 42.1319 -77.8589 289° West 400 460 32,000  Level Cleveland Center
06:03PM 42.1664 -77.9975 289° West 400 460 32,000  Level Cleveland Center
06:04PM 42.2028 -78.1361 290° West 400 460 32,000  Level Cleveland Center
06:05PM 42.2392 -78.2778 289° West 400 460 32,000  Level Cleveland Center
06:06PM 42.2708 -78.4028 289° West 400 460 32,000  Level Cleveland Center
06:07PM 42.3086 -78.5392 291° West 400 460 32,000  Level Cleveland Center
06:08PM 42.3425 -78.6842 288° West 400 460 32,000  Level Cleveland Center
06:09PM 42.3800 -78.8236 290° West 400 460 32,000  Level Cleveland Center
06:10PM 42.4133 -78.9661 288° West 400 460 32,000  Level Cleveland Center
06:11PM 42.4486 -79.1058 289° West 400 460 32,000  Level Cleveland Center
06:12PM 42.4839 -79.2486 289° West 400 460 32,000  Level Cleveland Center
06:13PM 42.4978 -79.3892 278° West 394 453 32,000  Level Cleveland Center
06:14PM 42.5056 -79.5383 274° West 394 453 32,000  Level Cleveland Center
06:15PM 42.5192 -79.6847 277° West 394 453 32,000  Level Cleveland Center
06:16PM 42.5308 -79.8281 276° West 394 453 32,100  Climbing Cleveland Center
06:17PM 42.5400 -79.9744 275° West 389 448 32,000 -60 Descending Cleveland Center
06:18PM 42.5511 -80.1208 276° West 389 448 32,000  Level Cleveland Center
06:19PM 42.5639 -80.2647 277° West 389 448 32,000  Level Cleveland Center
06:20PM 42.5725 -80.4111 275° West 389 448 32,000  Level Cleveland Center
06:21PM 42.5853 -80.5578 277° West 389 448 32,000  Level Cleveland Center
06:22PM 42.5956 -80.7017 276° West 389 448 32,000  Level Cleveland Center
06:23PM 42.6058 -80.8625 275° West 382 440 32,000  Level Cleveland Center
06:24PM 42.6178 -81.0092 276° West 393 452 32,000  Level Cleveland Center
06:25PM 42.6275 -81.1561 275° West 393 452 32,000 300 Level Cleveland Center
06:26PM 42.6350 -81.3056 274° West 402 463 32,600 840 Climbing Cleveland Center
06:27PM 42.6444 -81.4497 275° West 402 463 33,700 660 Climbing Cleveland Center
06:28PM 42.6558 -81.5967 276° West 395 455 34,000 120 Climbing Cleveland Center
06:29PM 42.6628 -81.7381 274° West 387 445 34,000  Level Cleveland Center
06:30PM 42.6739 -81.8822 276° West 387 445 34,000  Level Cleveland Center
06:31PM 42.6825 -82.0319 275° West 392 451 34,100  Climbing Cleveland Center
06:32PM 42.6908 -82.1764 275° West 392 451 34,000 -60 Descending Cleveland Center
06:33PM 42.6992 -82.3261 274° West 392 451 34,000  Level Cleveland Center
06:34PM 42.7072 -82.4733 274° West 397 457 34,000  Level Cleveland Center
06:35PM 42.7172 -82.6208 275° West 397 457 34,000  Level Cleveland Center
06:36PM 42.7228 -82.7736 273° West 403 464 34,000  Level Cleveland Center
06:37PM 42.7303 -82.9236 274° West 403 464 34,000  Level Cleveland Center
06:38PM 42.7397 -83.0739 275° West 403 464 34,000  Level Cleveland Center
06:39PM 42.7444 -83.2267 272° West 403 464 34,000  Level Cleveland Center
06:40PM 42.7556 -83.3769 276° West 403 464 34,000  Level Cleveland Center
06:41PM 42.7603 -83.5244 273° West 403 464 34,000  Level Cleveland Center
06:42PM 42.7689 -83.6775 274° West 403 464 34,000  Level Cleveland Center
06:43PM 42.7753 -83.8250 273° West 403 464 34,000  Level Cleveland Center
06:44PM 42.7817 -83.9639 274° West 408 470 34,000  Level Cleveland Center
06:45PM 42.7875 -84.1114 273° West 408 470 34,000  Level Cleveland Center
06:46PM 42.7933 -84.2617 273° West 408 470 34,000  Level Cleveland Center
06:47PM 42.8006 -84.4233 274° West 403 464 34,000  Level Cleveland Center
06:49PM 42.8103 -84.6575 273° West 400 460 34,000  Level Minneapolis Center
06:50PM 42.8158 -84.7761 274° West 398 458 34,000  Level Chicago Center
06:51PM 42.8222 -84.9569 273° West 399 459 34,000  Level Chicago Center
06:52PM 42.8272 -85.1086 273° West 400 460 34,000  Level Chicago Center
06:53PM 42.8325 -85.2603 273° West 401 461 34,000  Level Chicago Center
06:54PM 42.8369 -85.4111 272° West 401 461 34,000  Level Chicago Center
06:55PM 42.8417 -85.5633 272° West 401 461 34,000  Level Chicago Center
06:56PM 42.8458 -85.7142 272° West 399 459 34,000  Level Chicago Center
06:57PM 42.8506 -85.8672 272° West 400 460 34,000  Level Chicago Center
06:58PM 42.8558 -86.0508 272° West 398 458 34,000  Level Chicago Center
06:59PM 42.8603 -86.2033 272° West 400 460 34,000  Level Chicago Center
07:00PM 42.8625 -86.3583 271° West 404 465 34,000  Level Chicago Center
07:01PM 42.8650 -86.5122 271° West 405 466 34,000  Level Chicago Center
07:02PM 42.8686 -86.6664 272° West 406 467 34,000  Level Chicago Center
07:03PM 42.8717 -86.8206 272° West 407 468 34,000  Level Chicago Center
07:04PM 42.8747 -86.9742 272° West 406 467 34,000  Level Chicago Center
07:06PM 42.8769 -87.1592 271° West 407 468 34,000  Level Chicago Center
07:07PM 42.8792 -87.3150 271° West 410 472 34,000  Level Chicago Center
07:08PM 42.8806 -87.4694 271° West 411 473 34,000  Level Chicago Center
07:09PM 42.8825 -87.6256 271° West 412 474 34,000  Level Chicago Center
07:10PM 42.8842 -87.8056 271° West 408 470 34,000  Level Chicago Center
07:11PM 42.8856 -87.9619 271° West 408 470 34,000  Level Chicago Center
07:12PM 42.8867 -88.1178 271° West 409 471 34,000  Level Chicago Center
07:13PM 42.8883 -88.2717 271° West 406 467 34,000  Level Chicago Center
07:14PM 42.8889 -88.4261 270° West 405 466 34,000  Level Chicago Center
07:15PM 42.8897 -88.5825 270° West 408 470 34,000  Level Chicago Center
07:16PM 42.8897 -88.7386 270° West 409 471 34,000  Level Chicago Center
07:17PM 42.8903 -88.9208 270° West 409 471 34,000  Level Chicago Center
07:18PM 42.8900 -89.0753 270° West 407 468 34,000  Level Chicago Center
07:19PM 42.8894 -89.2289 270° West 405 466 34,000  Level Chicago Center
07:20PM 42.8883 -89.3828 269° West 404 465 34,000  Level Chicago Center
07:21PM 42.8875 -89.5353 270° West 403 464 34,000  Level Chicago Center
07:22PM 42.8869 -89.6900 270° West 405 466 34,000  Level Chicago Center
07:23PM 42.8850 -89.8708 269° West 407 468 34,000  Level Chicago Center
07:24PM 42.8828 -90.0075 269° West 407 468 34,000  Level Chicago Center
07:25PM 42.8819 -90.1603 270° West 405 466 34,000  Level Chicago Center
07:26PM 42.8811 -90.3447 270° West 407 468 34,000  Level Chicago Center
07:27PM 42.8794 -90.4989 269° West 409 471 34,000  Level Chicago Center
07:28PM 42.8769 -90.6531 269° West 408 470 34,000  Level Chicago Center
07:29PM 42.8731 -90.8047 268° West 405 466 34,000  Level Chicago Center
07:30PM 42.8706 -90.9575 269° West 405 466 34,000  Level Chicago Center
07:31PM 42.8681 -91.1433 269° West 409 471 34,000  Level Chicago Center
07:32PM 42.8650 -91.2969 268° West 409 471 34,000  Level Chicago Center
07:33PM 42.8625 -91.4492 269° West 407 468 34,000  Level Chicago Center
07:34PM 42.8572 -91.5989 267° West 409 471 34,000  Level Minneapolis Center
07:35PM 42.8528 -91.7453 268° West 404 465 34,000  Level Minneapolis Center
07:36PM 42.8494 -91.8975 268° West 405 466 34,000  Level Minneapolis Center
07:37PM 42.8456 -92.0517 268° West 409 471 34,000  Level Minneapolis Center
07:38PM 42.8411 -92.2375 268° West 411 473 34,000  Level Minneapolis Center
07:39PM 42.8358 -92.3906 267° West 409 471 34,000  Level Minneapolis Center
07:41PM 42.8314 -92.5439 268° West 409 471 34,000  Level Minneapolis Center
07:42PM 42.8264 -92.6956 267° West 406 467 34,000  Level Minneapolis Center
07:43PM 42.8217 -92.8453 268° West 403 464 34,000  Level Minneapolis Center
07:44PM 42.8161 -92.9953 267° West 400 460 34,000  Level Minneapolis Center
07:45PM 42.8097 -93.1758 267° West 400 460 34,000  Level Minneapolis Center
07:46PM 42.8044 -93.3258 267° West 400 460 34,000  Level Minneapolis Center
07:47PM 42.8000 -93.4469 267° West 400 460 34,000  Level Minneapolis Center
07:48PM 42.7931 -93.6275 267° West 400 460 34,000  Level Minneapolis Center
07:49PM 42.7864 -93.7800 267° West 403 464 34,000  Level Minneapolis Center
07:50PM 42.7797 -93.9308 267° West 402 463 34,000  Level Minneapolis Center
07:51PM 42.7722 -94.1125 267° West 402 463 34,000  Level Minneapolis Center
07:52PM 42.7650 -94.2678 266° West 402 463 34,000  Level Minneapolis Center
07:53PM 42.7578 -94.4139 266° West 402 463 34,000  Level Minneapolis Center
07:54PM 42.7503 -94.5644 266° West 402 463 34,000  Level Minneapolis Center
07:55PM 42.7419 -94.7194 266° West 398 458 34,000  Level Minneapolis Center
07:56PM 42.7344 -94.8772 266° West 401 461 34,000  Level Minneapolis Center
07:57PM 42.7272 -94.9972 265° West 400 460 34,000  Level Minneapolis Center
07:58PM 42.7186 -95.1778 266° West 400 460 34,000  Level Minneapolis Center
07:59PM 42.7097 -95.3275 265° West 399 459 34,000  Level Minneapolis Center
08:00PM 42.6997 -95.5078 266° West 400 460 34,000  Level Minneapolis Center
08:01PM 42.6908 -95.6583 265° West 401 461 34,000  Level Minneapolis Center
08:02PM 42.6803 -95.8361 265° West 396 456 34,000  Level Minneapolis Center
08:03PM 42.6708 -95.9850 265° West 397 457 34,000  Level Minneapolis Center
08:04PM 42.6614 -96.1317 265° West 394 453 34,000  Level Minneapolis Center
08:05PM 42.6517 -96.2792 265° West 393 452 34,000  Level Minneapolis Center
08:06PM 42.6400 -96.4569 265° West 395 455 34,000  Level Minneapolis Center
08:08PM 42.6300 -96.6064 265° West 398 458 34,100  Climbing Minneapolis Center
08:09PM 42.6194 -96.7550 265° West 397 457 34,000 -60 Descending Minneapolis Center
08:10PM 42.6094 -96.9025 265° West 395 455 34,000  Level Minneapolis Center
08:11PM 42.6000 -97.0481 265° West 393 452 34,000  Level Minneapolis Center
08:12PM 42.5889 -97.1958 264° West 392 451 34,000  Level Minneapolis Center
08:13PM 42.5758 -97.3722 264° West 393 452 34,000  Level Minneapolis Center
08:14PM 42.5656 -97.5197 265° West 394 453 34,000  Level Minneapolis Center
08:15PM 42.5536 -97.6650 264° West 391 450 34,000  Level Minneapolis Center
08:16PM 42.5422 -97.8108 264° West 390 449 34,000  Level Minneapolis Center
08:17PM 42.5286 -97.9725 264° West 389 448 34,000  Level Minneapolis Center
08:18PM 42.5164 -98.1167 263° West 388 447 34,000  Level Minneapolis Center
08:19PM 42.5056 -98.2614 264° West 387 445 34,000  Level Minneapolis Center
08:20PM 42.4928 -98.4058 263° West 387 445 34,000  Level Minneapolis Center
08:21PM 42.4811 -98.5500 264° West 386 444 34,000  Level Minneapolis Center
08:22PM 42.4561 -98.6947 257° West 397 457 34,000  Level Minneapolis Center
08:23PM 42.3917 -98.8581 242° Southwest 411 473 34,000  Level Minneapolis Center
08:24PM 42.3319 -98.9944 239° Southwest 418 481 34,000  Level Minneapolis Center
08:25PM 42.2719 -99.1264 238° Southwest 416 479 34,000  Level Minneapolis Center
08:26PM 42.2122 -99.2611 239° Southwest 417 480 34,000  Level Minneapolis Center
08:27PM 42.1517 -99.3925 238° Southwest 416 479 34,000  Level Minneapolis Center
08:28PM 42.1033 -99.4994 239° Southwest 413 475 34,000  Level Denver Center
08:29PM 42.0317 -99.6550 238° Southwest 410 472 34,000  Level Denver Center
08:30PM 41.9758 -99.7767 238° Southwest 406 467 34,000  Level Denver Center
08:31PM 41.9089 -99.9217 238° Southwest 408 470 34,000  Level Denver Center
08:32PM 41.8514 -100.0453 238° Southwest 409 471 34,100  Climbing Denver Center
08:33PM 41.7756 -100.2075 238° Southwest 404 465 34,000 -60 Descending Denver Center
08:34PM 41.7217 -100.3233 238° Southwest 389 448 34,000  Level Denver Center
08:35PM 41.6594 -100.4542 238° Southwest 375 432 34,000  Level Denver Center
08:37PM 41.6064 -100.5653 237° Southwest 373 429 34,000  Level Denver Center
08:38PM 41.5386 -100.7125 238° Southwest 368 423 34,000  Level Denver Center
08:39PM 41.5108 -100.8153 250° West 362 417 34,000  Level Denver Center
08:40PM 41.4814 -100.9792 257° West 359 413 34,000  Level Denver Center
08:41PM 41.4600 -101.1017 257° West 357 411 34,000  Level Denver Center
08:42PM 41.4325 -101.2472 256° West 362 417 34,000  Level Denver Center
08:43PM 41.4106 -101.3703 257° West 360 414 34,000  Level Denver Center
08:44PM 41.3825 -101.5161 256° West 364 419 34,000  Level Denver Center
08:45PM 41.3594 -101.6408 256° West 364 419 34,000  Level Denver Center
08:46PM 41.3322 -101.7858 256° West 363 418 34,000  Level Denver Center
08:47PM 41.3089 -101.9103 256° West 364 419 34,000  Level Denver Center
08:48PM 41.2786 -102.0597 255° West 371 427 34,000  Level Denver Center
08:49PM 41.2533 -102.1869 255° West 372 428 34,000  Level Denver Center
08:50PM 41.2200 -102.3578 256° West 375 432 34,000  Level Denver Center
08:51PM 41.1947 -102.4869 255° West 378 435 34,000  Level Denver Center
08:53PM 41.1606 -102.6614 255° West 383 441 34,100  Climbing Denver Center
08:54PM 41.1303 -102.8114 255° West 379 436 34,000 -60 Descending Denver Center
08:55PM 41.0978 -102.9592 254° West 376 433 34,000  Level Denver Center
08:56PM 41.0375 -103.0911 239° Southwest 392 451 34,000  Level Denver Center
08:57PM 40.9692 -103.2211 235° Southwest 386 444 34,000  Level Denver Center
08:58PM 40.9111 -103.3294 235° Southwest 383 441 34,000 -60 Level Denver Center
08:59PM 40.8503 -103.4431 235° Southwest 377 434 33,900 -1,560 Descending Denver Center
09:00PM 40.7875 -103.5597 235° Southwest 384 442 30,800 -2,640 Descending Denver Center
09:01PM 40.7144 -103.6725 230° Southwest 402 463 28,500 -2,460 Descending Denver Center
09:02PM 40.5997 -103.7619 211° Southwest 407 468 25,800 -2,040 Descending Denver Center
09:03PM 40.5058 -103.8389 212° Southwest 396 456 24,300 -1,440 Descending Denver Center
09:04PM 40.4197 -103.9097 212° Southwest 361 415 22,600 -1,800 Descending Denver Center
09:06PM 40.3619 -104.0278 237° Southwest 304 350 20,000 -2,640 Descending Denver Center
09:07PM 40.3144 -104.1522 243° Southwest 309 356 16,600 -2,760 Descending Denver Center
09:08PM 40.2747 -104.2536 243° Southwest 313 360 14,300 -1,800 Descending Denver Center
09:09PM 40.2922 -104.3594 282° West 280 322 12,900 -660 Descending Denver Center
09:10PM 40.3147 -104.4536 287° West 272 313 13,000  Climbing Denver Center
09:11PM 40.3394 -104.5556 288° West 273 314 13,000  Level Denver Center
09:12PM 40.3525 -104.6539 280° West 276 318 13,000  Level Denver Center
09:13PM 40.3631 -104.7600 277° West 275 316 13,000  Level Denver Center
09:14PM 40.3733 -104.8586 278° West 275 316 13,000  Level Denver Center
09:15PM 40.3942 -104.9617 285° West 283 326 13,000  Level Denver Center
09:16PM 40.4675 -104.9611 360° North 283 326 13,000  Level Denver Center
09:17PM 40.5428 -104.9308 17° North 283 326 13,000  Level Denver Center
09:18PM 40.5681 -104.8483 68° East 278 320 13,000  Level Denver Center
09:19PM 40.5019 -104.7925 147° Southeast 287 330 13,000  Level Denver Center
09:20PM 40.4425 -104.7508 152° Southeast 287 330 13,000 -60 Level Denver Center
09:21PM 40.3556 -104.6925 153° Southeast 286 329 12,900 -540 Descending Denver Center
09:22PM 40.2744 -104.6928 180° South 266 306 12,000 -720 Descending Denver Center
09:23PM 40.2217 -104.6925 180° South 250 288 11,500 -900 Descending Denver Center
09:24PM 40.1436 -104.6939 181° South 232 267 10,200 -1,320 Descending Denver Center
09:25PM 40.0769 -104.6944 180° South 222 255 8,800 -1,260 Descending Denver Center
09:26PM 40.0175 -104.6947 180° South 214 246 7,700 -1,080 Descending Denver Center
09:27PM 39.9597 -104.6953 180° South 196 226 6,600 -960 Descending Denver Center
09:28PM 39.9172 -104.6956 180° South 154 177 5,700 -660 Descending Denver Center
09:29PM 39.8769 -104.6967 181° South 136 157 5,300 -240 Descending Denver Center
09:30PM 39.8650 -104.6956 176° South 72 83 5,300  Level Denver Center
09:31PM 39.8606 -104.6922 150° Southeast 36 41 5,300  Level Denver Center
09:32PM 39.8606 -104.6867 90° East 20 23 5,300  Level Denver Center
09:33PM 39.8569 -104.6847 158° South 17 20 5,300  Level Denver Center
09:34PM 39.8536 -104.6811 140° Southeast 14 16 5,300  Level Denver Center
09:36PM 39.8753 -104.6742 14° North 38 44 5,300  Level Denver Center